Time;durP1;ratioP1;P1;durP2;ratioP2;P2;SDS_P1;SDS_P2;PMS_P1;PMS_P2;Temp;Humidity;BMP_temperature;BMP_pressure;BME280_temperature;BME280_humidity;BME280_pressure;Samples;Min_cycle;Max_cycle;Signal;HPM_P1;HPM_P2
2022/09/27 00:01:08;;;;;;;7.88;4.20;;;22.80;60.90;;;;;;7676815;22;81123;-60
2022/09/27 00:04:08;;;;;;;4.88;4.10;;;22.80;60.90;;;;;;7678822;22;80511;-60
2022/09/27 00:07:10;;;;;;;5.53;3.90;;;22.80;60.90;;;;;;7679925;22;80458;-60
2022/09/27 00:10:10;;;;;;;5.75;3.75;;;22.80;61.00;;;;;;7680634;22;80930;-60
2022/09/27 00:13:11;;;;;;;5.75;3.60;;;22.80;61.70;;;;;;7679219;22;80366;-61
2022/09/27 00:16:11;;;;;;;5.82;3.85;;;22.80;61.00;;;;;;7680388;22;81344;-61
2022/09/27 00:19:12;;;;;;;6.65;3.92;;;22.80;60.90;;;;;;7680058;22;80093;-59
2022/09/27 00:22:13;;;;;;;6.05;3.85;;;22.80;60.90;;;;;;7677468;22;80037;-61
2022/09/27 00:25:13;;;;;;;4.18;3.42;;;22.80;60.90;;;;;;7681386;22;80214;-60
2022/09/27 00:28:14;;;;;;;4.63;3.28;;;22.80;61.00;;;;;;7680105;22;80378;-61
2022/09/27 00:31:14;;;;;;;7.30;3.72;;;22.80;61.00;;;;;;7676595;22;80599;-60
2022/09/27 00:34:15;;;;;;;6.72;3.97;;;22.70;61.00;;;;;;7681884;22;80177;-61
2022/09/27 00:37:16;;;;;;;6.25;3.72;;;22.80;61.10;;;;;;7650006;22;86159;-59
2022/09/27 00:40:16;;;;;;;7.65;4.22;;;22.70;61.00;;;;;;7651564;22;80486;-60
2022/09/27 00:43:17;;;;;;;6.57;3.80;;;22.70;60.90;;;;;;7681660;22;80151;-60
2022/09/27 00:46:17;;;;;;;5.90;3.47;;;22.70;60.90;;;;;;7652841;22;82959;-60
2022/09/27 00:49:18;;;;;;;6.50;3.50;;;22.80;60.90;;;;;;7655147;22;82287;-60
2022/09/27 00:52:18;;;;;;;4.03;3.25;;;22.70;60.90;;;;;;7677144;22;80341;-59
2022/09/27 00:55:18;;;;;;;5.75;3.38;;;22.70;60.80;;;;;;7652385;22;83339;-60
2022/09/27 00:58:19;;;;;;;5.57;3.42;;;22.70;60.80;;;;;;7678891;22;80811;-60
2022/09/27 01:01:19;;;;;;;3.95;3.20;;;22.70;60.80;;;;;;7680122;22;80829;-60
2022/09/27 01:04:22;;;;;;;7.38;3.55;;;22.70;60.80;;;;;;7678532;22;80716;-61
2022/09/27 01:07:23;;;;;;;7.43;3.60;;;22.70;60.70;;;;;;7651428;22;83216;-61
2022/09/27 01:10:25;;;;;;;4.80;3.35;;;22.70;60.70;;;;;;7676610;22;80806;-60
2022/09/27 01:13:25;;;;;;;4.30;3.45;;;22.70;60.60;;;;;;7680307;22;86234;-61
2022/09/27 01:16:26;;;;;;;5.13;3.40;;;22.70;60.60;;;;;;7679395;22;80476;-61
2022/09/27 01:19:26;;;;;;;8.82;3.13;;;22.70;60.50;;;;;;7681282;22;80442;-62
2022/09/27 01:22:27;;;;;;;5.03;3.20;;;22.70;60.50;;;;;;7649360;22;82925;-61
2022/09/27 01:25:27;;;;;;;5.00;3.50;;;22.70;60.40;;;;;;7680884;22;80179;-62
2022/09/27 01:28:28;;;;;;;4.97;3.45;;;22.70;60.40;;;;;;7680457;22;81019;-61
2022/09/27 01:31:29;;;;;;;4.78;3.30;;;22.70;60.30;;;;;;7676592;22;79998;-61
2022/09/27 01:34:29;;;;;;;4.28;3.42;;;22.70;60.20;;;;;;7677500;22;80290;-61
2022/09/27 01:37:30;;;;;;;4.82;3.03;;;22.70;60.20;;;;;;7653140;22;81991;-61
2022/09/27 01:40:30;;;;;;;6.70;3.30;;;22.70;60.20;;;;;;7681166;22;81527;-61
2022/09/27 01:43:49;;;;;;;4.80;3.38;;;22.60;60.10;;;;;;7677973;22;80736;-61
2022/09/27 01:46:56;;;;;;;4.63;3.53;;;22.70;60.10;;;;;;7651585;22;82224;-60
2022/09/27 01:50:12;;;;;;;5.28;3.67;;;22.70;60.00;;;;;;7652222;22;82787;-60
2022/09/27 01:53:13;;;;;;;4.63;3.08;;;22.70;60.00;;;;;;7679517;22;80321;-60
2022/09/27 01:56:30;;;;;;;4.93;3.33;;;22.70;60.00;;;;;;7653699;22;82736;-61
2022/09/27 01:59:36;;;;;;;6.55;3.55;;;22.70;60.20;;;;;;7651444;22;81767;-62
2022/09/27 02:03:13;;;;;;;5.13;3.35;;;22.60;60.00;;;;;;7604292;22;80039;-60
2022/09/27 02:06:14;;;;;;;5.43;3.58;;;22.60;60.10;;;;;;7675892;22;81831;-60
2022/09/27 02:09:32;;;;;;;6.78;3.67;;;22.60;60.10;;;;;;7651843;22;81903;-60
2022/09/27 02:12:52;;;;;;;4.10;3.17;;;22.60;60.10;;;;;;7650072;22;82563;-60
2022/09/27 02:15:53;;;;;;;4.53;3.47;;;22.60;60.10;;;;;;7651452;22;82149;-60
2022/09/27 02:19:03;;;;;;;4.90;3.63;;;22.60;60.00;;;;;;7652122;22;80982;-61
2022/09/27 02:22:04;;;;;;;4.30;3.22;;;22.60;60.10;;;;;;7654152;22;82527;-61
2022/09/27 02:25:04;;;;;;;6.00;3.35;;;22.60;60.00;;;;;;7650925;22;83668;-62
2022/09/27 02:28:05;;;;;;;4.13;3.67;;;22.60;60.00;;;;;;7625607;22;82141;-61
2022/09/27 02:31:08;;;;;;;5.05;3.35;;;22.60;60.00;;;;;;7654509;22;83680;-61
2022/09/27 02:34:10;;;;;;;7.97;3.63;;;22.60;60.00;;;;;;7652671;22;82682;-61
2022/09/27 02:37:10;;;;;;;5.18;3.63;;;22.60;60.00;;;;;;7653578;22;82165;-61
2022/09/27 02:40:12;;;;;;;5.22;3.47;;;22.60;59.90;;;;;;7652495;22;83633;-60
2022/09/27 02:43:13;;;;;;;3.92;3.03;;;22.60;59.80;;;;;;7651002;22;82772;-60
2022/09/27 02:46:13;;;;;;;6.30;3.67;;;22.60;59.70;;;;;;7647690;22;83329;-60
2022/09/27 02:49:15;;;;;;;4.75;3.40;;;22.60;59.70;;;;;;7653650;22;82744;-61
2022/09/27 02:52:25;;;;;;;3.97;2.92;;;22.60;59.70;;;;;;7649067;22;87935;-62
2022/09/27 02:55:26;;;;;;;4.70;3.33;;;22.60;59.50;;;;;;7652723;22;80568;-62
2022/09/27 02:58:32;;;;;;;3.03;2.70;;;22.60;59.50;;;;;;7649157;22;83713;-60
2022/09/27 03:01:52;;;;;;;6.50;3.33;;;22.60;59.50;;;;;;7653209;22;83222;-49
2022/09/27 03:05:05;;;;;;;5.95;3.50;;;22.60;59.40;;;;;;7648542;22;82680;-48
2022/09/27 03:08:06;;;;;;;3.97;3.08;;;22.60;59.30;;;;;;7649659;22;80358;-47
2022/09/27 03:11:06;;;;;;;3.72;3.35;;;22.60;59.30;;;;;;7653066;22;82699;-48
2022/09/27 03:14:08;;;;;;;3.38;3.00;;;22.60;59.10;;;;;;7651849;22;82996;-47
2022/09/27 03:17:11;;;;;;;3.55;2.90;;;22.60;59.00;;;;;;7649844;22;82358;-46
2022/09/27 03:20:30;;;;;;;5.93;3.72;;;22.70;58.90;;;;;;7676524;22;81803;-47
2022/09/27 03:24:06;;;;;;;7.18;3.22;;;22.60;58.20;;;;;;7667268;22;81503;-47
2022/09/27 03:27:06;;;;;;;4.65;4.00;;;22.70;57.90;;;;;;7650192;22;83690;-50
2022/09/27 03:30:07;;;;;;;5.47;3.65;;;22.70;57.70;;;;;;7651327;22;81100;-48
2022/09/27 03:33:08;;;;;;;4.35;3.63;;;22.70;57.30;;;;;;7652180;22;82571;-49
2022/09/27 03:36:15;;;;;;;4.30;3.45;;;22.80;57.10;;;;;;7680545;22;82078;-49
2022/09/27 03:39:15;;;;;;;3.97;3.25;;;22.80;56.90;;;;;;7650914;22;81448;-49
2022/09/27 03:42:16;;;;;;;4.35;3.30;;;22.80;56.70;;;;;;7653916;22;83103;-49
2022/09/27 03:45:20;;;;;;;4.20;3.25;;;22.90;56.70;;;;;;7651923;22;87543;-51
2022/09/27 03:48:21;;;;;;;6.63;3.25;;;22.90;56.50;;;;;;7654103;22;82973;-49
2022/09/27 03:51:21;;;;;;;5.07;3.72;;;22.90;56.20;;;;;;7650448;22;82872;-49
2022/09/27 03:54:22;;;;;;;5.30;3.47;;;22.90;56.10;;;;;;7678730;22;81280;-48
2022/09/27 03:57:23;;;;;;;4.07;3.50;;;22.90;56.00;;;;;;7678906;22;81305;-48
2022/09/27 04:00:24;;;;;;;3.65;3.20;;;23.00;56.00;;;;;;7652734;22;81351;-48
2022/09/27 04:03:25;;;;;;;4.20;3.00;;;23.00;55.80;;;;;;7681059;22;81389;-51
2022/09/27 04:06:45;;;;;;;4.43;3.33;;;23.00;55.70;;;;;;7677443;22;80391;-48
2022/09/27 04:09:45;;;;;;;3.97;3.50;;;23.00;55.70;;;;;;7648652;22;83479;-49
2022/09/27 04:12:46;;;;;;;4.55;3.20;;;23.10;55.60;;;;;;7651484;22;83143;-57
2022/09/27 04:15:47;;;;;;;3.83;3.33;;;23.00;55.40;;;;;;7648070;22;82950;-59
2022/09/27 04:19:06;;;;;;;5.15;3.63;;;23.10;56.00;;;;;;7678273;22;80945;-60
2022/09/27 04:22:07;;;;;;;5.57;3.50;;;23.10;55.70;;;;;;7667558;22;81071;-60
2022/09/27 04:25:08;;;;;;;4.65;3.50;;;23.10;55.70;;;;;;7670902;22;81298;-61
2022/09/27 04:28:11;;;;;;;6.03;3.80;;;23.10;55.90;;;;;;7649567;22;83007;-60
2022/09/27 04:31:12;;;;;;;6.53;3.38;;;23.10;56.10;;;;;;7652545;22;83567;-59
2022/09/27 04:38:01;;;;;;;5.03;3.58;;;23.10;55.90;;;;;;7652336;22;81792;-58
2022/09/27 04:41:01;;;;;;;7.30;2.80;;;23.10;55.80;;;;;;7652494;22;82945;-60
2022/09/27 04:44:06;;;;;;;21.63;3.67;;;23.10;56.00;;;;;;7651750;22;81979;-60
2022/09/27 04:47:06;;;;;;;5.18;3.33;;;23.20;56.40;;;;;;7644781;22;82928;-60
2022/09/27 04:50:07;;;;;;;4.97;3.55;;;23.20;56.60;;;;;;7644453;22;81817;-60
2022/09/27 04:53:08;;;;;;;5.50;3.65;;;23.20;56.90;;;;;;7644898;22;81508;-63
2022/09/27 04:56:08;;;;;;;6.25;3.08;;;23.20;57.00;;;;;;7673692;22;80435;-62
2022/09/27 04:59:09;;;;;;;6.03;3.60;;;23.20;57.30;;;;;;7650721;22;81217;-64
2022/09/27 05:02:10;;;;;;;3.70;2.97;;;23.20;57.30;;;;;;7653181;22;82759;-65
2022/09/27 05:05:37;;;;;;;9.38;3.35;;;23.20;56.90;;;;;;7672409;22;80866;-66
2022/09/27 05:08:37;;;;;;;4.82;3.67;;;23.20;56.70;;;;;;7653822;22;83389;-61
2022/09/27 05:11:59;;;;;;;7.88;3.20;;;23.20;56.70;;;;;;7653669;22;82727;-63
2022/09/27 05:15:06;;;;;;;5.03;3.47;;;23.30;56.70;;;;;;7679447;22;80751;-61
2022/09/27 05:18:19;;;;;;;5.78;3.30;;;23.30;56.40;;;;;;7679211;22;80370;-60
2022/09/27 05:21:38;;;;;;;6.72;3.55;;;23.30;56.10;;;;;;7681464;22;80474;-63
2022/09/27 05:24:38;;;;;;;5.63;3.75;;;23.30;56.30;;;;;;7651099;22;82052;-63
2022/09/27 05:27:40;;;;;;;12.07;3.97;;;23.30;56.60;;;;;;7653460;22;82993;-62
2022/09/27 05:30:40;;;;;;;7.13;3.50;;;23.30;56.50;;;;;;7628398;22;83078;-62
2022/09/27 05:33:46;;;;;;;;;;;23.30;56.80;;;;;;7641938;22;83109;-62
2022/09/27 05:37:05;;;;;;;5.82;3.53;;;23.30;56.40;;;;;;7683662;22;81796;-62
2022/09/27 05:40:11;;;;;;;4.63;3.47;;;23.30;56.20;;;;;;7641788;22;80785;-67
2022/09/27 05:43:11;;;;;;;5.05;3.65;;;23.30;55.50;;;;;;7650798;22;82721;-64
2022/09/27 05:46:12;;;;;;;13.50;3.90;;;23.20;55.50;;;;;;7645354;22;83066;-63
2022/09/27 05:49:15;;;;;;;6.18;3.55;;;23.20;55.30;;;;;;7648994;22;81855;-64
2022/09/27 05:52:17;;;;;;;5.05;3.67;;;23.20;55.30;;;;;;7646994;22;82141;-63
2022/09/27 05:55:18;;;;;;;6.43;4.05;;;23.20;55.30;;;;;;7649505;22;81698;-61
2022/09/27 05:58:18;;;;;;;4.22;3.42;;;23.10;55.00;;;;;;7647161;22;81502;-63
2022/09/27 06:01:28;;;;;;;6.07;3.60;;;23.10;55.60;;;;;;7638090;22;83282;-62
2022/09/27 06:04:47;;;;;;;5.05;3.65;;;23.10;55.90;;;;;;7670272;22;80228;-59
2022/09/27 06:08:06;;;;;;;5.43;3.67;;;23.10;55.50;;;;;;7653381;22;80156;-59
2022/09/27 06:11:12;;;;;;;;;;;23.10;55.50;;;;;;7627505;22;81737;-58
2022/09/27 06:14:12;;;;;;;6.40;3.92;;;23.00;55.60;;;;;;7650280;22;83722;-59
2022/09/27 06:17:24;;;;;;;4.68;3.80;;;23.10;55.80;;;;;;7645382;22;81222;-60
2022/09/27 06:20:25;;;;;;;4.93;3.30;;;23.00;56.30;;;;;;7650755;22;82953;-58
2022/09/27 06:23:26;;;;;;;5.63;3.63;;;23.00;56.00;;;;;;7647184;22;82783;-57
2022/09/27 06:26:28;;;;;;;8.57;3.78;;;23.00;56.20;;;;;;7673184;22;80228;-58
2022/09/27 06:29:47;;;;;;;5.80;3.95;;;23.00;55.80;;;;;;7673339;22;84749;-59
2022/09/27 06:32:59;;;;;;;4.70;3.28;;;23.00;55.70;;;;;;7652410;22;81476;-58
2022/09/27 06:36:11;;;;;;;6.15;3.80;;;23.00;56.30;;;;;;7653204;22;83344;-58
2022/09/27 06:39:13;;;;;;;6.05;3.83;;;23.00;55.90;;;;;;7647735;22;82992;-58
2022/09/27 06:42:24;;;;;;;5.90;3.63;;;23.00;55.70;;;;;;7646585;22;83510;-50
2022/09/27 06:45:31;;;;;;;3.90;3.05;;;23.00;55.40;;;;;;7649992;22;83482;-51
2022/09/27 06:48:51;;;;;;;6.55;3.92;;;23.00;55.90;;;;;;7673072;22;81536;-53
2022/09/27 06:51:54;;;;;;;4.10;3.70;;;23.10;56.30;;;;;;7638568;22;83170;-50
2022/09/27 06:54:56;;;;;;;8.70;3.63;;;23.00;56.10;;;;;;7642450;22;87677;-51
2022/09/27 07:01:26;;;;;;;5.53;3.28;;;23.10;55.60;;;;;;7641271;22;81376;-53
2022/09/27 07:04:59;;;;;;;4.25;3.55;;;23.10;55.80;;;;;;7610092;22;80322;-53
2022/09/27 07:08:12;;;;;;;8.40;3.80;;;23.10;56.30;;;;;;7650882;22;82755;-51
2022/09/27 07:11:14;;;;;;;6.82;4.30;;;23.10;56.20;;;;;;7652972;22;82824;-51
2022/09/27 07:14:16;;;;;;;10.63;5.03;;;23.10;56.20;;;;;;7652513;22;83406;-52
2022/09/27 07:17:16;;;;;;;13.65;4.35;;;23.10;56.20;;;;;;7654758;22;82941;-50
2022/09/27 07:20:20;;;;;;;13.70;5.35;;;23.10;56.20;;;;;;7653663;22;83181;-55
2022/09/27 07:23:20;;;;;;;9.98;5.32;;;23.10;56.30;;;;;;7649391;22;82103;-54
2022/09/27 07:26:21;;;;;;;8.45;4.38;;;23.10;56.40;;;;;;7651760;22;82788;-53
2022/09/27 07:29:22;;;;;;;17.92;5.53;;;23.10;56.60;;;;;;7653465;22;83718;-54
2022/09/27 07:32:25;;;;;;;8.07;4.18;;;23.10;56.80;;;;;;7651672;22;81655;-53
2022/09/27 07:35:27;;;;;;;9.80;5.07;;;23.10;56.90;;;;;;7653372;22;83168;-54
2022/09/27 07:38:27;;;;;;;7.10;4.15;;;23.10;56.80;;;;;;7677343;22;81436;-59
2022/09/27 07:41:28;;;;;;;8.25;4.35;;;23.10;56.90;;;;;;7645797;22;82927;-58
2022/09/27 07:44:29;;;;;;;6.68;4.25;;;23.10;57.10;;;;;;7653065;22;82927;-59
2022/09/27 07:47:58;;;;;;;7.93;4.63;;;23.10;57.20;;;;;;7655226;22;83295;-58
2022/09/27 07:51:34;;;;;;;9.48;4.85;;;23.10;57.30;;;;;;7603596;22;80598;-59
2022/09/27 07:54:59;;;;;;;7.88;4.85;;;23.10;57.30;;;;;;7652957;22;83167;-59
2022/09/27 07:58:20;;;;;;;7.72;4.50;;;23.10;57.30;;;;;;7679129;22;80824;-58
2022/09/27 08:01:23;;;;;;;5.53;3.92;;;23.20;57.40;;;;;;7652752;22;81997;-58
2022/09/27 08:04:23;;;;;;;6.85;4.38;;;23.20;57.40;;;;;;7651959;22;82952;-58
2022/09/27 08:07:24;;;;;;;6.22;4.25;;;23.20;57.40;;;;;;7681836;22;81306;-58
2022/09/27 08:10:29;;;;;;;7.50;4.65;;;23.20;57.40;;;;;;7650850;22;82259;-58
2022/09/27 08:13:29;;;;;;;5.32;4.20;;;23.20;57.50;;;;;;7651758;22;83372;-58
2022/09/27 08:16:30;;;;;;;6.20;4.38;;;23.20;57.60;;;;;;7639662;22;82077;-58
2022/09/27 08:19:49;;;;;;;6.55;4.00;;;23.20;57.90;;;;;;7641867;22;82457;-58
2022/09/27 08:23:23;;;;;;;6.05;4.55;;;23.20;57.70;;;;;;7653328;22;80613;-58
2022/09/27 08:26:30;;;;;;;8.18;4.60;;;23.30;58.00;;;;;;7644586;22;82990;-58
2022/09/27 08:29:42;;;;;;;6.40;3.65;;;23.30;58.20;;;;;;7644334;22;86076;-58
2022/09/27 08:32:42;;;;;;;7.35;4.13;;;23.30;58.00;;;;;;7649578;22;82353;-58
2022/09/27 08:35:43;;;;;;;7.53;3.97;;;23.30;58.10;;;;;;7653427;22;82918;-58
2022/09/27 08:38:44;;;;;;;4.80;3.70;;;23.30;58.30;;;;;;7642834;22;81991;-58
2022/09/27 08:41:44;;;;;;;7.97;4.45;;;23.40;58.20;;;;;;7633692;22;82329;-59
2022/09/27 08:44:45;;;;;;;8.00;4.22;;;23.40;58.30;;;;;;7647204;22;82979;-58
2022/09/27 08:47:48;;;;;;;7.38;3.95;;;23.50;58.50;;;;;;7649190;22;82953;-58
2022/09/27 08:50:49;;;;;;;6.75;3.80;;;23.50;58.20;;;;;;7651536;22;83065;-58
2022/09/27 08:53:49;;;;;;;5.65;3.60;;;23.60;58.20;;;;;;7652339;22;83326;-59
2022/09/27 08:56:51;;;;;;;5.53;3.67;;;23.60;58.00;;;;;;7652856;22;80652;-59
2022/09/27 08:59:51;;;;;;;5.45;3.97;;;23.60;58.00;;;;;;7648481;22;82555;-58
2022/09/27 09:02:53;;;;;;;4.53;3.50;;;23.60;57.90;;;;;;7649405;22;83611;-64
2022/09/27 09:05:54;;;;;;;6.05;3.85;;;23.60;57.80;;;;;;7679744;22;81501;-62
2022/09/27 09:08:55;;;;;;;7.47;4.38;;;23.70;58.00;;;;;;7650647;22;82654;-68
2022/09/27 09:15:15;;;;;;;6.60;4.80;;;23.60;55.90;;;;;;7641347;22;82847;-68
2022/09/27 09:18:17;;;;;;;6.88;4.63;;;23.60;55.50;;;;;;7643098;22;81447;-68
2022/09/27 09:21:20;;;;;;;5.32;4.30;;;23.70;55.30;;;;;;7636217;22;83282;-67
2022/09/27 09:24:21;;;;;;;7.05;5.10;;;23.70;55.30;;;;;;7669218;22;83878;-70
2022/09/27 09:27:21;;;;;;;6.45;5.10;;;23.70;55.30;;;;;;7651054;22;82581;-68
2022/09/27 09:30:22;;;;;;;6.90;4.95;;;23.80;55.30;;;;;;7651543;22;82668;-69
2022/09/27 09:33:26;;;;;;;6.97;4.78;;;23.80;55.10;;;;;;7676386;22;80467;-68
2022/09/27 09:36:27;;;;;;;6.72;5.43;;;23.80;55.00;;;;;;7653249;22;81693;-68
2022/09/27 09:39:28;;;;;;;8.10;5.07;;;23.80;54.80;;;;;;7649637;22;83117;-69
2022/09/27 09:42:28;;;;;;;6.80;5.07;;;23.90;54.80;;;;;;7653389;22;83002;-69
2022/09/27 09:45:29;;;;;;;9.10;5.53;;;24.00;54.60;;;;;;7649536;22;82756;-69
2022/09/27 09:48:30;;;;;;;6.75;4.97;;;24.00;54.50;;;;;;7651707;22;82093;-69
2022/09/27 09:51:30;;;;;;;8.00;5.18;;;24.00;54.70;;;;;;7650772;22;83277;-65
2022/09/27 09:54:32;;;;;;;7.95;5.43;;;24.10;54.60;;;;;;7651012;22;83106;-69
2022/09/27 09:57:33;;;;;;;7.22;5.07;;;24.10;54.40;;;;;;7651394;22;83311;-65
2022/09/27 10:00:33;;;;;;;9.05;4.97;;;24.10;54.50;;;;;;7649148;22;82437;-65
2022/09/27 10:03:34;;;;;;;7.80;4.57;;;24.10;54.60;;;;;;7651526;22;83153;-58
2022/09/27 10:06:35;;;;;;;6.80;5.03;;;24.10;54.50;;;;;;7647106;22;83073;-59
2022/09/27 10:09:36;;;;;;;7.30;5.22;;;24.10;54.70;;;;;;7638461;22;83193;-59
2022/09/27 10:12:55;;;;;;;14.55;5.53;;;24.10;55.40;;;;;;7670215;22;81049;-60
2022/09/27 10:16:01;;;;;;;7.03;4.97;;;24.20;55.50;;;;;;7645235;22;83671;-59
2022/09/27 10:19:02;;;;;;;6.25;4.78;;;24.10;55.90;;;;;;7635460;22;81669;-61
2022/09/27 10:22:02;;;;;;;7.95;4.53;;;24.10;56.00;;;;;;7652317;22;83192;-60
2022/09/27 10:25:06;;;;;;;9.75;4.35;;;24.20;55.80;;;;;;7649159;22;81746;-58
2022/09/27 10:28:33;;;;;;;8.10;4.68;;;24.20;56.30;;;;;;7670347;22;80505;-60
2022/09/27 10:31:33;;;;;;;9.32;5.30;;;24.30;56.40;;;;;;7643164;22;81502;-61
2022/09/27 10:34:47;;;;;;;4.35;3.72;;;24.30;56.40;;;;;;7646028;22;82187;-61
2022/09/27 10:37:47;;;;;;;8.35;4.57;;;24.30;56.60;;;;;;7678480;22;80413;-60
2022/09/27 10:40:48;;;;;;;8.65;4.40;;;24.20;56.80;;;;;;7673222;22;81866;-62
2022/09/27 10:43:49;;;;;;;6.40;4.20;;;24.20;56.80;;;;;;7653520;22;82842;-60
2022/09/27 10:47:02;;;;;;;6.22;4.43;;;24.30;57.20;;;;;;7654891;22;83113;-60
2022/09/27 10:50:40;;;;;;;5.28;3.80;;;24.20;57.30;;;;;;7603711;22;83637;-61
2022/09/27 10:54:06;;;;;;;8.00;4.10;;;24.20;57.20;;;;;;7652552;22;83310;-62
2022/09/27 10:57:09;;;;;;;5.65;3.92;;;24.20;57.10;;;;;;7654023;22;83304;-61
2022/09/27 11:00:09;;;;;;;6.60;4.43;;;24.20;57.10;;;;;;7653632;22;82922;-52
2022/09/27 11:03:11;;;;;;;7.80;3.90;;;24.20;57.20;;;;;;7650954;22;82705;-54
2022/09/27 11:06:11;;;;;;;6.20;4.25;;;24.20;57.00;;;;;;7652950;22;83097;-54
2022/09/27 11:09:12;;;;;;;7.05;4.15;;;24.30;56.90;;;;;;7678867;22;80413;-52
2022/09/27 11:12:13;;;;;;;4.25;3.25;;;24.30;56.70;;;;;;7654475;22;83469;-53
2022/09/27 11:15:14;;;;;;;5.13;3.65;;;24.40;57.10;;;;;;7650300;22;82286;-52
2022/09/27 11:18:16;;;;;;;4.97;3.85;;;24.50;56.70;;;;;;7653312;22;81203;-60
2022/09/27 11:21:17;;;;;;;5.40;3.50;;;24.50;57.10;;;;;;7653746;22;82532;-60
2022/09/27 11:24:17;;;;;;;5.20;3.33;;;24.50;57.00;;;;;;7653823;22;83035;-59
2022/09/27 11:27:19;;;;;;;9.43;3.22;;;24.60;56.60;;;;;;7651212;22;82994;-59
2022/09/27 11:30:19;;;;;;;5.38;3.75;;;24.60;56.80;;;;;;7651815;22;82576;-60
2022/09/27 11:33:36;;;;;;;3.78;3.22;;;24.60;56.70;;;;;;7642320;22;86045;-58
2022/09/27 11:36:36;;;;;;;4.13;3.33;;;24.60;56.60;;;;;;7623085;22;82593;-59
2022/09/27 11:39:37;;;;;;;4.13;3.45;;;24.60;56.80;;;;;;7653649;22;81748;-60
2022/09/27 11:42:38;;;;;;;10.57;3.50;;;24.50;56.80;;;;;;7649099;22;82685;-60
2022/09/27 11:45:39;;;;;;;6.30;3.88;;;24.40;57.00;;;;;;7671916;22;81440;-60
2022/09/27 11:48:39;;;;;;;4.45;2.70;;;24.50;56.90;;;;;;7673898;22;80514;-59
2022/09/27 11:51:40;;;;;;;4.82;3.22;;;24.40;56.80;;;;;;7644131;22;82994;-60
2022/09/27 11:54:42;;;;;;;7.32;3.17;;;24.40;56.70;;;;;;7644214;22;82965;-61
2022/09/27 11:57:42;;;;;;;4.60;2.92;;;24.40;56.40;;;;;;7645015;22;82972;-60
2022/09/27 12:00:43;;;;;;;4.95;3.22;;;24.40;56.70;;;;;;7650706;22;81398;-60
2022/09/27 12:03:47;;;;;;;5.70;3.45;;;24.30;55.90;;;;;;7653030;22;83188;-60
2022/09/27 12:06:51;;;;;;;2.72;2.50;;;24.30;56.20;;;;;;7651701;22;82652;-61
2022/09/27 12:09:52;;;;;;;7.00;3.88;;;24.30;56.10;;;;;;7653443;22;82994;-60
2022/09/27 12:12:53;;;;;;;3.33;2.67;;;24.30;56.20;;;;;;7627882;22;82565;-60
2022/09/27 12:15:53;;;;;;;3.97;3.03;;;24.30;56.30;;;;;;7652566;22;83068;-59
2022/09/27 12:18:56;;;;;;;3.25;2.47;;;24.30;56.00;;;;;;7648054;22;82357;-60
2022/09/27 12:22:23;;;;;;;4.70;2.72;;;24.20;56.00;;;;;;7653202;22;82041;-59
2022/09/27 12:25:23;;;;;;;3.38;2.28;;;24.20;56.20;;;;;;7652451;22;82227;-60
2022/09/27 12:28:38;;;;;;;3.50;2.60;;;24.20;56.20;;;;;;7650810;22;83255;-60
2022/09/27 12:31:39;;;;;;;4.82;2.60;;;24.30;56.40;;;;;;7651561;22;82750;-61
2022/09/27 12:34:39;;;;;;;3.15;2.20;;;24.30;55.50;;;;;;7652968;22;83116;-60
2022/09/27 12:37:40;;;;;;;4.43;2.75;;;24.20;55.50;;;;;;7652119;22;82931;-60
2022/09/27 12:40:41;;;;;;;5.80;2.67;;;24.20;55.30;;;;;;7641621;22;83176;-60
2022/09/27 12:43:45;;;;;;;4.00;2.50;;;24.20;55.30;;;;;;7645807;22;81671;-60
2022/09/27 12:46:51;;;;;;;3.13;2.47;;;24.10;55.40;;;;;;7628393;22;83080;-60
2022/09/27 12:49:52;;;;;;;4.18;2.75;;;24.20;55.50;;;;;;7653054;22;82868;-60
2022/09/27 12:52:53;;;;;;;5.40;2.67;;;24.10;55.40;;;;;;7652119;22;82993;-58
2022/09/27 12:55:53;;;;;;;3.40;2.50;;;24.10;55.60;;;;;;7653225;22;82496;-60
2022/09/27 12:58:55;;;;;;;4.97;2.25;;;24.10;55.40;;;;;;7681753;22;80495;-60
2022/09/27 13:01:57;;;;;;;4.50;2.90;;;24.10;55.00;;;;;;7648795;22;82156;-59
2022/09/27 13:04:58;;;;;;;4.20;2.65;;;24.10;54.70;;;;;;7650196;22;81313;-60
2022/09/27 13:07:59;;;;;;;2.95;2.05;;;24.10;54.50;;;;;;7644178;22;81634;-59
2022/09/27 13:10:59;;;;;;;2.78;2.03;;;24.10;54.50;;;;;;7648362;22;82970;-60
2022/09/27 13:14:04;;;;;;;6.85;2.45;;;24.10;54.40;;;;;;7649464;22;82554;-60
2022/09/27 13:17:05;;;;;;;2.38;2.05;;;24.10;54.10;;;;;;7648570;22;82543;-61
2022/09/27 13:20:05;;;;;;;2.88;2.10;;;24.10;54.10;;;;;;7645658;22;82145;-61
2022/09/27 13:23:06;;;;;;;3.00;2.00;;;24.10;54.60;;;;;;7648021;22;83078;-60
2022/09/27 13:26:12;;;;;;;3.28;2.25;;;24.20;54.40;;;;;;7648538;22;82896;-59
2022/09/27 13:29:22;;;;;;;2.95;1.88;;;24.10;54.30;;;;;;7648143;22;82444;-60
2022/09/27 13:32:27;;;;;;;4.13;2.30;;;24.20;54.40;;;;;;7618374;22;83514;-61
2022/09/27 13:35:36;;;;;;;3.35;2.25;;;24.10;54.00;;;;;;7672090;22;84764;-60
2022/09/27 13:38:45;;;;;;;6.75;2.42;;;24.10;54.10;;;;;;7652093;22;83433;-59
2022/09/27 13:41:47;;;;;;;11.57;2.30;;;24.10;53.70;;;;;;7650920;22;82915;-60
2022/09/27 13:44:48;;;;;;;2.53;1.88;;;24.00;53.40;;;;;;7637347;22;82114;-67
2022/09/27 13:47:48;;;;;;;3.15;2.00;;;24.00;53.60;;;;;;7649452;22;83161;-67
2022/09/27 13:50:58;;;;;;;2.25;2.00;;;24.00;53.60;;;;;;7652663;22;81581;-66
2022/09/27 13:53:59;;;;;;;3.33;2.45;;;24.00;54.00;;;;;;7651291;22;83482;-66
2022/09/27 13:57:00;;;;;;;2.22;2.03;;;24.00;53.70;;;;;;7649151;22;81490;-68
2022/09/27 14:00:05;;;;;;;3.13;2.30;;;24.00;53.60;;;;;;7646424;22;83501;-68
2022/09/27 14:03:23;;;;;;;3.08;2.35;;;23.90;53.30;;;;;;7674984;22;80575;-66
2022/09/27 14:06:24;;;;;;;2.78;2.47;;;23.90;53.70;;;;;;7649853;22;82599;-69
2022/09/27 14:09:25;;;;;;;2.88;2.42;;;24.00;53.70;;;;;;7652835;22;82124;-67
2022/09/27 14:12:36;;;;;;;3.40;2.65;;;23.90;53.50;;;;;;7642839;22;82524;-65
2022/09/27 14:15:39;;;;;;;3.20;2.42;;;23.90;53.50;;;;;;7650324;22;83305;-69
2022/09/27 14:18:39;;;;;;;2.75;2.50;;;23.90;53.60;;;;;;7653993;22;83047;-66
2022/09/27 14:21:40;;;;;;;3.63;2.72;;;23.90;54.00;;;;;;7649161;22;83001;-67
2022/09/27 14:24:57;;;;;;;3.05;2.42;;;23.90;54.10;;;;;;7653820;22;81525;-67
2022/09/27 14:28:02;;;;;;;4.87;3.40;;;23.90;54.50;;;;;;7644519;22;82104;-68
2022/09/27 14:31:10;;;;;;;7.38;3.70;;;23.90;54.70;;;;;;7647264;22;82339;-65
2022/09/27 14:34:29;;;;;;;4.28;3.20;;;23.90;54.90;;;;;;7674595;22;80007;-68
2022/09/27 14:37:30;;;;;;;4.38;3.53;;;23.80;55.10;;;;;;7653161;22;83176;-66
2022/09/27 14:40:39;;;;;;;8.38;3.58;;;23.90;55.30;;;;;;7643315;22;82769;-71
2022/09/27 14:43:39;;;;;;;4.80;2.78;;;23.80;55.70;;;;;;7666465;22;81491;-71
2022/09/27 14:46:40;;;;;;;4.93;3.13;;;23.90;55.90;;;;;;7660524;22;81587;-69
2022/09/27 14:49:41;;;;;;;3.08;2.72;;;23.80;55.80;;;;;;7682633;22;81929;-70
2022/09/27 14:52:41;;;;;;;4.55;2.88;;;23.80;55.90;;;;;;7673408;22;80304;-66
2022/09/27 14:55:42;;;;;;;7.28;2.55;;;23.80;55.80;;;;;;7675530;22;80448;-64
2022/09/27 14:58:44;;;;;;;3.05;2.22;;;23.80;55.80;;;;;;7674900;22;80319;-68
2022/09/27 15:01:46;;;;;;;4.78;2.42;;;23.70;55.90;;;;;;7679088;22;80624;-71
2022/09/27 15:04:46;;;;;;;5.80;2.40;;;23.80;56.00;;;;;;7675173;22;81623;-64
2022/09/27 15:07:47;;;;;;;4.15;2.28;;;23.70;56.20;;;;;;7681435;22;80322;-68
2022/09/27 15:10:48;;;;;;;3.53;2.38;;;23.70;56.20;;;;;;7673769;22;80536;-66
2022/09/27 15:13:50;;;;;;;3.08;2.22;;;23.80;56.10;;;;;;7679868;22;80779;-66
2022/09/27 15:16:51;;;;;;;3.95;2.42;;;23.70;56.60;;;;;;7668555;22;81267;-59
2022/09/27 15:19:51;;;;;;;5.72;3.33;;;23.70;56.40;;;;;;7679994;22;80131;-59
2022/09/27 15:22:52;;;;;;;6.85;2.42;;;23.70;56.70;;;;;;7683004;22;80207;-62
2022/09/27 15:25:52;;;;;;;5.78;2.17;;;23.70;56.90;;;;;;7674480;22;82034;-62
2022/09/27 15:28:53;;;;;;;2.20;2.00;;;23.80;57.30;;;;;;7676572;22;80307;-61
2022/09/27 15:31:53;;;;;;;11.02;3.13;;;23.80;57.50;;;;;;7676461;22;80580;-61
2022/09/27 15:34:54;;;;;;;3.63;2.30;;;23.70;57.80;;;;;;7674793;22;80594;-69
2022/09/27 15:37:54;;;;;;;9.88;2.83;;;23.80;57.80;;;;;;7681141;22;80406;-69
2022/09/27 15:40:55;;;;;;;6.80;2.53;;;23.80;58.30;;;;;;7671092;22;81010;-67
2022/09/27 15:43:55;;;;;;;2.92;1.92;;;23.80;58.70;;;;;;7683164;22;81371;-67
2022/09/27 15:46:56;;;;;;;4.85;2.42;;;23.80;59.10;;;;;;7682377;22;80019;-69
2022/09/27 15:49:56;;;;;;;7.10;2.40;;;23.70;59.00;;;;;;7682881;22;80343;-68
2022/09/27 15:52:57;;;;;;;5.43;2.40;;;23.70;59.00;;;;;;7679342;22;80197;-66
2022/09/27 15:55:57;;;;;;;4.20;1.90;;;23.80;58.90;;;;;;7683414;22;79929;-65
2022/09/27 15:58:58;;;;;;;12.80;2.17;;;23.70;58.70;;;;;;7676336;22;81337;-65
2022/09/27 16:01:58;;;;;;;7.82;2.67;;;23.80;58.40;;;;;;7661250;22;81396;-61
2022/09/27 16:04:59;;;;;;;3.33;1.98;;;23.80;58.10;;;;;;7664844;22;80323;-65
2022/09/27 16:08:00;;;;;;;10.52;2.53;;;23.90;58.10;;;;;;7679093;22;80304;-65
2022/09/27 16:11:02;;;;;;;4.43;2.30;;;23.80;57.90;;;;;;7679182;22;81701;-64